sensor_id;sensor_type;location;lat;lon;timestamp;temperature;humidity
480;DHT22;226;48.606;9.096;2023-11-21T00:00:21;8.60;93.70
480;DHT22;226;48.606;9.096;2023-11-21T00:02:49;8.40;92.20
480;DHT22;226;48.606;9.096;2023-11-21T00:05:18;7.30;92.30
480;DHT22;226;48.606;9.096;2023-11-21T00:07:47;8.00;93.90
480;DHT22;226;48.606;9.096;2023-11-21T00:10:15;7.30;94.90
480;DHT22;226;48.606;9.096;2023-11-21T00:12:44;7.60;95.40
480;DHT22;226;48.606;9.096;2023-11-21T00:15:15;7.80;93.50
480;DHT22;226;48.606;9.096;2023-11-21T00:17:43;8.10;94.50
480;DHT22;226;48.606;9.096;2023-11-21T00:20:11;8.30;92.50
480;DHT22;226;48.606;9.096;2023-11-21T00:22:41;8.20;93.10
480;DHT22;226;48.606;9.096;2023-11-21T00:25:11;8.30;91.80
480;DHT22;226;48.606;9.096;2023-11-21T00:27:42;8.20;91.00
480;DHT22;226;48.606;9.096;2023-11-21T00:30:11;7.80;91.80
480;DHT22;226;48.606;9.096;2023-11-21T00:32:39;8.30;92.50
480;DHT22;226;48.606;9.096;2023-11-21T00:35:08;8.40;92.40
480;DHT22;226;48.606;9.096;2023-11-21T00:37:37;7.80;93.20
480;DHT22;226;48.606;9.096;2023-11-21T00:40:07;8.40;94.80
480;DHT22;226;48.606;9.096;2023-11-21T00:42:37;8.90;93.50
480;DHT22;226;48.606;9.096;2023-11-21T00:45:07;8.50;91.60
480;DHT22;226;48.606;9.096;2023-11-21T00:47:35;8.50;94.50
480;DHT22;226;48.606;9.096;2023-11-21T00:50:04;8.50;94.10
480;DHT22;226;48.606;9.096;2023-11-21T00:52:34;9.10;93.60
480;DHT22;226;48.606;9.096;2023-11-21T00:55:03;8.40;92.10
480;DHT22;226;48.606;9.096;2023-11-21T00:57:31;8.60;93.10
480;DHT22;226;48.606;9.096;2023-11-21T01:00:01;8.30;92.40
480;DHT22;226;48.606;9.096;2023-11-21T01:02:33;8.90;96.10
480;DHT22;226;48.606;9.096;2023-11-21T01:05:03;9.00;95.00
480;DHT22;226;48.606;9.096;2023-11-21T01:07:31;8.40;90.90
480;DHT22;226;48.606;9.096;2023-11-21T01:10:00;8.60;92.60
480;DHT22;226;48.606;9.096;2023-11-21T01:12:28;8.50;91.50
480;DHT22;226;48.606;9.096;2023-11-21T01:14:56;8.50;92.80
480;DHT22;226;48.606;9.096;2023-11-21T01:17:28;8.40;96.40
480;DHT22;226;48.606;9.096;2023-11-21T01:19:56;8.50;93.50
480;DHT22;226;48.606;9.096;2023-11-21T01:22:24;8.30;92.90
480;DHT22;226;48.606;9.096;2023-11-21T01:24:53;8.30;93.60
480;DHT22;226;48.606;9.096;2023-11-21T01:27:21;8.40;93.70
480;DHT22;226;48.606;9.096;2023-11-21T01:29:49;9.00;92.40
480;DHT22;226;48.606;9.096;2023-11-21T01:32:20;8.30;91.30
480;DHT22;226;48.606;9.096;2023-11-21T01:34:50;8.20;92.40
480;DHT22;226;48.606;9.096;2023-11-21T01:37:18;8.20;90.80
480;DHT22;226;48.606;9.096;2023-11-21T01:39:48;8.20;92.90
480;DHT22;226;48.606;9.096;2023-11-21T01:42:16;8.50;93.80
480;DHT22;226;48.606;9.096;2023-11-21T01:44:45;8.30;92.60
480;DHT22;226;48.606;9.096;2023-11-21T01:47:13;9.10;92.80
480;DHT22;226;48.606;9.096;2023-11-21T01:49:44;7.70;93.40
480;DHT22;226;48.606;9.096;2023-11-21T01:52:14;8.20;91.40
480;DHT22;226;48.606;9.096;2023-11-21T01:54:42;8.30;92.90
480;DHT22;226;48.606;9.096;2023-11-21T01:57:10;8.30;92.60
480;DHT22;226;48.606;9.096;2023-11-21T01:59:41;8.20;91.80
480;DHT22;226;48.606;9.096;2023-11-21T02:02:10;9.20;91.40
480;DHT22;226;48.606;9.096;2023-11-21T02:04:38;8.60;91.90
480;DHT22;226;48.606;9.096;2023-11-21T02:07:07;8.30;91.30
480;DHT22;226;48.606;9.096;2023-11-21T02:09:36;7.30;91.70
480;DHT22;226;48.606;9.096;2023-11-21T02:12:06;8.00;93.00
480;DHT22;226;48.606;9.096;2023-11-21T02:14:35;8.40;93.20
480;DHT22;226;48.606;9.096;2023-11-21T02:17:04;7.90;92.60
480;DHT22;226;48.606;9.096;2023-11-21T02:19:32;7.80;93.10
480;DHT22;226;48.606;9.096;2023-11-21T02:22:01;7.80;94.20
480;DHT22;226;48.606;9.096;2023-11-21T02:24:34;7.90;94.40
480;DHT22;226;48.606;9.096;2023-11-21T02:27:03;7.80;94.50
480;DHT22;226;48.606;9.096;2023-11-21T02:29:33;7.80;95.80
480;DHT22;226;48.606;9.096;2023-11-21T02:32:01;7.70;92.10
480;DHT22;226;48.606;9.096;2023-11-21T02:34:30;7.80;96.50
480;DHT22;226;48.606;9.096;2023-11-21T02:36:58;7.90;92.60
480;DHT22;226;48.606;9.096;2023-11-21T02:39:27;8.00;96.50
480;DHT22;226;48.606;9.096;2023-11-21T02:41:56;7.90;92.80
480;DHT22;226;48.606;9.096;2023-11-21T02:44:24;7.50;95.40
480;DHT22;226;48.606;9.096;2023-11-21T02:46:53;7.70;93.80
480;DHT22;226;48.606;9.096;2023-11-21T02:49:21;7.80;95.50
480;DHT22;226;48.606;9.096;2023-11-21T02:51:49;7.60;92.10
480;DHT22;226;48.606;9.096;2023-11-21T02:54:17;7.60;96.20
480;DHT22;226;48.606;9.096;2023-11-21T02:56:46;7.60;94.90
480;DHT22;226;48.606;9.096;2023-11-21T02:59:16;7.60;95.80
480;DHT22;226;48.606;9.096;2023-11-21T03:01:44;7.70;95.60
480;DHT22;226;48.606;9.096;2023-11-21T03:04:12;7.60;97.70
480;DHT22;226;48.606;9.096;2023-11-21T03:06:44;7.40;97.80
480;DHT22;226;48.606;9.096;2023-11-21T03:09:13;8.50;97.90
480;DHT22;226;48.606;9.096;2023-11-21T03:11:41;8.00;97.70
480;DHT22;226;48.606;9.096;2023-11-21T03:14:09;8.10;94.90
480;DHT22;226;48.606;9.096;2023-11-21T03:16:39;7.80;92.60
480;DHT22;226;48.606;9.096;2023-11-21T03:19:08;7.70;92.40
480;DHT22;226;48.606;9.096;2023-11-21T03:21:36;7.60;92.70
480;DHT22;226;48.606;9.096;2023-11-21T03:24:05;7.90;95.30
480;DHT22;226;48.606;9.096;2023-11-21T03:26:34;7.60;92.30
480;DHT22;226;48.606;9.096;2023-11-21T03:29:04;7.90;95.00
480;DHT22;226;48.606;9.096;2023-11-21T03:31:32;7.40;95.60
480;DHT22;226;48.606;9.096;2023-11-21T03:34:02;7.50;94.90
480;DHT22;226;48.606;9.096;2023-11-21T03:36:30;7.90;94.60
480;DHT22;226;48.606;9.096;2023-11-21T03:38:58;7.50;94.60
480;DHT22;226;48.606;9.096;2023-11-21T03:41:26;7.50;95.00
480;DHT22;226;48.606;9.096;2023-11-21T03:43:54;7.50;94.90
480;DHT22;226;48.606;9.096;2023-11-21T03:46:22;7.50;94.30
480;DHT22;226;48.606;9.096;2023-11-21T03:48:51;7.50;94.40
480;DHT22;226;48.606;9.096;2023-11-21T03:51:20;7.40;94.00
480;DHT22;226;48.606;9.096;2023-11-21T03:53:48;7.40;94.50
480;DHT22;226;48.606;9.096;2023-11-21T03:56:16;7.40;95.60
480;DHT22;226;48.606;9.096;2023-11-21T03:58:45;7.30;96.30
480;DHT22;226;48.606;9.096;2023-11-21T04:01:19;7.40;97.20
480;DHT22;226;48.606;9.096;2023-11-21T04:03:49;7.50;96.80
480;DHT22;226;48.606;9.096;2023-11-21T04:06:17;7.50;96.50
480;DHT22;226;48.606;9.096;2023-11-21T04:08:47;7.70;96.50
480;DHT22;226;48.606;9.096;2023-11-21T04:11:15;7.70;90.00
480;DHT22;226;48.606;9.096;2023-11-21T04:13:43;7.70;91.00
480;DHT22;226;48.606;9.096;2023-11-21T04:16:13;8.80;95.10
480;DHT22;226;48.606;9.096;2023-11-21T04:18:42;7.40;95.20
480;DHT22;226;48.606;9.096;2023-11-21T04:21:10;7.50;95.20
480;DHT22;226;48.606;9.096;2023-11-21T04:23:38;7.70;94.60
480;DHT22;226;48.606;9.096;2023-11-21T04:26:08;7.70;96.10
480;DHT22;226;48.606;9.096;2023-11-21T04:28:36;7.70;95.80
480;DHT22;226;48.606;9.096;2023-11-21T04:31:04;8.20;96.40
480;DHT22;226;48.606;9.096;2023-11-21T04:33:34;7.80;96.40
480;DHT22;226;48.606;9.096;2023-11-21T04:36:02;7.90;96.30
480;DHT22;226;48.606;9.096;2023-11-21T04:38:30;7.60;96.40
480;DHT22;226;48.606;9.096;2023-11-21T04:40:59;8.00;96.20
480;DHT22;226;48.606;9.096;2023-11-21T04:43:31;8.10;94.70
480;DHT22;226;48.606;9.096;2023-11-21T04:45:59;8.20;97.30
480;DHT22;226;48.606;9.096;2023-11-21T04:48:29;8.00;94.90
480;DHT22;226;48.606;9.096;2023-11-21T04:50:57;7.80;96.00
480;DHT22;226;48.606;9.096;2023-11-21T04:53:26;8.00;96.50
480;DHT22;226;48.606;9.096;2023-11-21T04:55:54;8.10;96.50
480;DHT22;226;48.606;9.096;2023-11-21T04:58:22;8.10;96.20
480;DHT22;226;48.606;9.096;2023-11-21T05:00:52;8.20;91.10
480;DHT22;226;48.606;9.096;2023-11-21T05:03:20;8.10;94.20
480;DHT22;226;48.606;9.096;2023-11-21T05:05:51;8.20;91.80
480;DHT22;226;48.606;9.096;2023-11-21T05:08:19;8.20;92.80
480;DHT22;226;48.606;9.096;2023-11-21T05:10:49;8.10;93.10
480;DHT22;226;48.606;9.096;2023-11-21T05:13:18;8.30;94.40
480;DHT22;226;48.606;9.096;2023-11-21T05:15:47;8.20;93.00
480;DHT22;226;48.606;9.096;2023-11-21T05:18:16;8.20;91.20
480;DHT22;226;48.606;9.096;2023-11-21T05:20:44;8.20;94.10
480;DHT22;226;48.606;9.096;2023-11-21T05:23:14;8.40;94.30
480;DHT22;226;48.606;9.096;2023-11-21T05:25:42;8.30;94.80
480;DHT22;226;48.606;9.096;2023-11-21T05:28:10;8.30;91.80
480;DHT22;226;48.606;9.096;2023-11-21T05:30:38;8.20;93.20
480;DHT22;226;48.606;9.096;2023-11-21T05:33:06;8.30;94.00
480;DHT22;226;48.606;9.096;2023-11-21T05:35:36;8.30;94.50
480;DHT22;226;48.606;9.096;2023-11-21T05:38:04;8.20;93.30
480;DHT22;226;48.606;9.096;2023-11-21T05:40:32;8.20;92.90
480;DHT22;226;48.606;9.096;2023-11-21T05:43:00;8.10;93.60
480;DHT22;226;48.606;9.096;2023-11-21T05:45:29;8.20;92.20
480;DHT22;226;48.606;9.096;2023-11-21T05:47:58;7.60;93.20
480;DHT22;226;48.606;9.096;2023-11-21T05:50:26;8.40;94.50
480;DHT22;226;48.606;9.096;2023-11-21T05:52:56;8.50;92.70
480;DHT22;226;48.606;9.096;2023-11-21T05:55:26;8.10;94.50
480;DHT22;226;48.606;9.096;2023-11-21T05:57:55;8.30;94.70
480;DHT22;226;48.606;9.096;2023-11-21T06:00:23;8.20;95.30
480;DHT22;226;48.606;9.096;2023-11-21T06:02:53;8.60;95.40
480;DHT22;226;48.606;9.096;2023-11-21T06:05:23;8.20;94.60
480;DHT22;226;48.606;9.096;2023-11-21T06:07:54;8.10;94.80
480;DHT22;226;48.606;9.096;2023-11-21T06:10:25;8.20;95.00
480;DHT22;226;48.606;9.096;2023-11-21T06:12:53;8.20;95.70
480;DHT22;226;48.606;9.096;2023-11-21T06:15:22;8.20;95.80
480;DHT22;226;48.606;9.096;2023-11-21T06:17:51;8.20;94.00
480;DHT22;226;48.606;9.096;2023-11-21T06:20:21;8.30;94.80
480;DHT22;226;48.606;9.096;2023-11-21T06:22:51;8.20;91.80
480;DHT22;226;48.606;9.096;2023-11-21T06:25:20;8.20;94.90
480;DHT22;226;48.606;9.096;2023-11-21T06:27:50;8.10;90.70
480;DHT22;226;48.606;9.096;2023-11-21T06:30:20;8.10;90.90
480;DHT22;226;48.606;9.096;2023-11-21T06:32:50;8.20;90.90
480;DHT22;226;48.606;9.096;2023-11-21T06:35:20;8.20;92.60
480;DHT22;226;48.606;9.096;2023-11-21T06:37:48;8.40;94.40
480;DHT22;226;48.606;9.096;2023-11-21T06:40:19;8.20;95.10
480;DHT22;226;48.606;9.096;2023-11-21T06:42:49;8.50;94.80
480;DHT22;226;48.606;9.096;2023-11-21T06:45:18;8.30;94.90
480;DHT22;226;48.606;9.096;2023-11-21T06:47:47;8.20;94.90
480;DHT22;226;48.606;9.096;2023-11-21T06:50:15;8.10;95.10
480;DHT22;226;48.606;9.096;2023-11-21T06:52:44;8.20;94.70
480;DHT22;226;48.606;9.096;2023-11-21T06:55:12;8.30;94.00
480;DHT22;226;48.606;9.096;2023-11-21T06:57:40;8.20;92.50
480;DHT22;226;48.606;9.096;2023-11-21T07:00:12;8.20;92.40
480;DHT22;226;48.606;9.096;2023-11-21T07:02:40;8.20;93.40
480;DHT22;226;48.606;9.096;2023-11-21T07:05:09;8.20;93.00
480;DHT22;226;48.606;9.096;2023-11-21T07:07:37;8.40;95.70
480;DHT22;226;48.606;9.096;2023-11-21T07:10:06;8.40;94.90
480;DHT22;226;48.606;9.096;2023-11-21T07:12:36;8.40;90.80
480;DHT22;226;48.606;9.096;2023-11-21T07:15:05;8.50;95.10
480;DHT22;226;48.606;9.096;2023-11-21T07:17:37;8.30;92.90
480;DHT22;226;48.606;9.096;2023-11-21T07:20:08;8.30;94.40
480;DHT22;226;48.606;9.096;2023-11-21T07:22:38;8.30;93.30
480;DHT22;226;48.606;9.096;2023-11-21T07:25:07;8.80;92.80
480;DHT22;226;48.606;9.096;2023-11-21T07:27:36;8.30;92.90
480;DHT22;226;48.606;9.096;2023-11-21T07:30:05;8.50;92.90
480;DHT22;226;48.606;9.096;2023-11-21T07:32:37;8.50;92.80
480;DHT22;226;48.606;9.096;2023-11-21T07:35:08;8.70;92.10
480;DHT22;226;48.606;9.096;2023-11-21T07:37:37;8.60;91.90
480;DHT22;226;48.606;9.096;2023-11-21T07:40:06;8.20;91.30
480;DHT22;226;48.606;9.096;2023-11-21T07:42:36;8.60;91.80
480;DHT22;226;48.606;9.096;2023-11-21T07:45:05;8.80;92.10
480;DHT22;226;48.606;9.096;2023-11-21T07:47:34;8.60;92.70
480;DHT22;226;48.606;9.096;2023-11-21T07:50:04;8.60;92.70
480;DHT22;226;48.606;9.096;2023-11-21T07:52:34;8.60;93.50
480;DHT22;226;48.606;9.096;2023-11-21T07:55:03;8.60;89.80
480;DHT22;226;48.606;9.096;2023-11-21T07:57:32;8.70;92.80
480;DHT22;226;48.606;9.096;2023-11-21T08:00:00;8.60;93.40
480;DHT22;226;48.606;9.096;2023-11-21T08:02:29;8.80;92.90
480;DHT22;226;48.606;9.096;2023-11-21T08:04:57;8.80;90.80
480;DHT22;226;48.606;9.096;2023-11-21T08:07:27;8.70;92.00
480;DHT22;226;48.606;9.096;2023-11-21T08:09:55;8.90;92.40
480;DHT22;226;48.606;9.096;2023-11-21T08:12:24;8.80;92.50
480;DHT22;226;48.606;9.096;2023-11-21T08:14:54;9.10;90.70
480;DHT22;226;48.606;9.096;2023-11-21T08:17:22;9.30;91.80
480;DHT22;226;48.606;9.096;2023-11-21T08:19:50;8.80;90.70
480;DHT22;226;48.606;9.096;2023-11-21T08:22:19;8.70;91.20
480;DHT22;226;48.606;9.096;2023-11-21T08:24:49;9.20;91.60
480;DHT22;226;48.606;9.096;2023-11-21T08:27:17;8.90;91.50
480;DHT22;226;48.606;9.096;2023-11-21T08:29:45;9.00;92.10
480;DHT22;226;48.606;9.096;2023-11-21T08:32:13;8.60;91.70
480;DHT22;226;48.606;9.096;2023-11-21T08:34:41;8.80;91.40
480;DHT22;226;48.606;9.096;2023-11-21T08:37:11;9.00;91.80
480;DHT22;226;48.606;9.096;2023-11-21T08:39:43;9.00;92.00
480;DHT22;226;48.606;9.096;2023-11-21T08:42:13;8.90;91.90
480;DHT22;226;48.606;9.096;2023-11-21T08:44:41;9.00;91.00
480;DHT22;226;48.606;9.096;2023-11-21T08:47:10;9.20;91.30
480;DHT22;226;48.606;9.096;2023-11-21T08:49:38;9.30;91.30
480;DHT22;226;48.606;9.096;2023-11-21T08:52:06;9.40;89.70
480;DHT22;226;48.606;9.096;2023-11-21T08:54:34;9.20;88.00
480;DHT22;226;48.606;9.096;2023-11-21T08:57:03;9.30;78.50
480;DHT22;226;48.606;9.096;2023-11-21T08:59:33;9.30;87.10
480;DHT22;226;48.606;9.096;2023-11-21T09:02:01;9.30;84.00
480;DHT22;226;48.606;9.096;2023-11-21T09:04:29;9.70;86.70
480;DHT22;226;48.606;9.096;2023-11-21T09:06:58;9.60;86.30
480;DHT22;226;48.606;9.096;2023-11-21T09:09:27;9.70;77.20
480;DHT22;226;48.606;9.096;2023-11-21T09:11:56;9.80;80.90
480;DHT22;226;48.606;9.096;2023-11-21T09:14:25;10.30;71.80
480;DHT22;226;48.606;9.096;2023-11-21T09:16:55;11.00;77.20
480;DHT22;226;48.606;9.096;2023-11-21T09:19:24;10.20;72.40
480;DHT22;226;48.606;9.096;2023-11-21T09:21:52;10.30;65.30
480;DHT22;226;48.606;9.096;2023-11-21T09:24:21;10.60;73.80
480;DHT22;226;48.606;9.096;2023-11-21T09:26:49;10.40;64.10
480;DHT22;226;48.606;9.096;2023-11-21T09:29:17;10.50;72.40
480;DHT22;226;48.606;9.096;2023-11-21T09:31:45;9.90;69.10
480;DHT22;226;48.606;9.096;2023-11-21T09:34:15;10.00;77.20
480;DHT22;226;48.606;9.096;2023-11-21T09:36:45;10.10;78.70
480;DHT22;226;48.606;9.096;2023-11-21T09:39:13;10.30;73.80
480;DHT22;226;48.606;9.096;2023-11-21T09:41:44;10.00;70.00
480;DHT22;226;48.606;9.096;2023-11-21T09:44:19;9.90;74.70
480;DHT22;226;48.606;9.096;2023-11-21T09:46:51;10.00;81.70
480;DHT22;226;48.606;9.096;2023-11-21T09:49:23;10.20;74.50
480;DHT22;226;48.606;9.096;2023-11-21T09:51:55;10.00;75.00
480;DHT22;226;48.606;9.096;2023-11-21T09:54:24;10.00;74.20
480;DHT22;226;48.606;9.096;2023-11-21T09:56:53;9.90;78.30
480;DHT22;226;48.606;9.096;2023-11-21T09:59:22;9.80;75.20
480;DHT22;226;48.606;9.096;2023-11-21T10:01:50;9.90;75.10
480;DHT22;226;48.606;9.096;2023-11-21T10:04:19;10.00;72.20
480;DHT22;226;48.606;9.096;2023-11-21T10:06:50;10.00;72.90
480;DHT22;226;48.606;9.096;2023-11-21T10:09:20;10.10;69.50
480;DHT22;226;48.606;9.096;2023-11-21T10:11:49;10.10;71.00
480;DHT22;226;48.606;9.096;2023-11-21T10:14:19;10.20;72.70
480;DHT22;226;48.606;9.096;2023-11-21T10:16:52;10.10;68.10
480;DHT22;226;48.606;9.096;2023-11-21T10:19:21;10.30;71.10
480;DHT22;226;48.606;9.096;2023-11-21T10:21:52;10.40;72.90
480;DHT22;226;48.606;9.096;2023-11-21T10:24:21;10.40;68.70
480;DHT22;226;48.606;9.096;2023-11-21T10:26:49;10.70;66.70
480;DHT22;226;48.606;9.096;2023-11-21T10:29:20;10.30;72.50
480;DHT22;226;48.606;9.096;2023-11-21T10:31:50;10.20;71.40
480;DHT22;226;48.606;9.096;2023-11-21T10:34:20;10.30;74.10
480;DHT22;226;48.606;9.096;2023-11-21T10:36:49;10.40;71.60
480;DHT22;226;48.606;9.096;2023-11-21T10:39:19;10.20;73.80
480;DHT22;226;48.606;9.096;2023-11-21T10:41:50;10.20;71.40
480;DHT22;226;48.606;9.096;2023-11-21T10:44:18;10.40;72.10
480;DHT22;226;48.606;9.096;2023-11-21T10:46:49;10.40;71.70
480;DHT22;226;48.606;9.096;2023-11-21T10:49:19;10.50;66.60
480;DHT22;226;48.606;9.096;2023-11-21T10:51:48;10.80;70.90
480;DHT22;226;48.606;9.096;2023-11-21T10:54:20;10.20;68.50
480;DHT22;226;48.606;9.096;2023-11-21T10:56:49;9.90;74.70
480;DHT22;226;48.606;9.096;2023-11-21T10:59:19;9.90;71.70
480;DHT22;226;48.606;9.096;2023-11-21T11:01:52;10.00;79.30
480;DHT22;226;48.606;9.096;2023-11-21T11:04:22;9.80;78.50
480;DHT22;226;48.606;9.096;2023-11-21T11:06:55;10.00;80.70
480;DHT22;226;48.606;9.096;2023-11-21T11:09:26;10.00;85.00
480;DHT22;226;48.606;9.096;2023-11-21T11:11:55;10.10;81.50
480;DHT22;226;48.606;9.096;2023-11-21T11:14:24;10.20;81.80
480;DHT22;226;48.606;9.096;2023-11-21T11:16:54;10.30;82.30
480;DHT22;226;48.606;9.096;2023-11-21T11:19:23;10.50;79.50
480;DHT22;226;48.606;9.096;2023-11-21T11:21:59;10.80;80.80
480;DHT22;226;48.606;9.096;2023-11-21T11:24:49;10.60;75.70
480;DHT22;226;48.606;9.096;2023-11-21T11:27:25;10.70;75.60
480;DHT22;226;48.606;9.096;2023-11-21T11:30:10;10.70;79.50
480;DHT22;226;48.606;9.096;2023-11-21T11:32:54;10.80;72.80
480;DHT22;226;48.606;9.096;2023-11-21T11:35:27;11.00;70.70
480;DHT22;226;48.606;9.096;2023-11-21T11:37:57;10.70;68.60
480;DHT22;226;48.606;9.096;2023-11-21T11:40:38;10.70;71.20
480;DHT22;226;48.606;9.096;2023-11-21T11:43:07;10.60;67.70
480;DHT22;226;48.606;9.096;2023-11-21T11:45:36;10.60;73.80
480;DHT22;226;48.606;9.096;2023-11-21T11:48:11;10.70;67.20
480;DHT22;226;48.606;9.096;2023-11-21T11:53:25;10.80;71.50
480;DHT22;226;48.606;9.096;2023-11-21T11:56:20;10.50;73.80
480;DHT22;226;48.606;9.096;2023-11-21T11:58:49;10.00;74.00
480;DHT22;226;48.606;9.096;2023-11-21T12:01:18;10.40;75.40
480;DHT22;226;48.606;9.096;2023-11-21T12:06:52;9.80;79.10
480;DHT22;226;48.606;9.096;2023-11-21T12:09:20;10.40;77.30
480;DHT22;226;48.606;9.096;2023-11-21T12:11:50;10.70;80.40
480;DHT22;226;48.606;9.096;2023-11-21T12:14:19;10.40;75.90
480;DHT22;226;48.606;9.096;2023-11-21T12:16:47;10.40;82.50
480;DHT22;226;48.606;9.096;2023-11-21T12:19:15;10.40;87.40
480;DHT22;226;48.606;9.096;2023-11-21T12:21:44;10.50;84.80
480;DHT22;226;48.606;9.096;2023-11-21T12:24:12;10.50;82.00
480;DHT22;226;48.606;9.096;2023-11-21T12:26:41;10.60;81.40
480;DHT22;226;48.606;9.096;2023-11-21T12:29:11;10.70;79.40
480;DHT22;226;48.606;9.096;2023-11-21T12:31:39;10.70;73.70
480;DHT22;226;48.606;9.096;2023-11-21T12:34:08;10.60;79.10
480;DHT22;226;48.606;9.096;2023-11-21T12:36:38;10.60;78.10
480;DHT22;226;48.606;9.096;2023-11-21T12:39:06;10.90;79.90
480;DHT22;226;48.606;9.096;2023-11-21T12:41:36;10.50;85.20
480;DHT22;226;48.606;9.096;2023-11-21T12:44:11;10.60;76.60
480;DHT22;226;48.606;9.096;2023-11-21T12:46:43;10.50;72.80
480;DHT22;226;48.606;9.096;2023-11-21T12:49:13;10.50;77.00
480;DHT22;226;48.606;9.096;2023-11-21T12:51:45;10.60;79.30
480;DHT22;226;48.606;9.096;2023-11-21T12:54:14;11.10;80.40
480;DHT22;226;48.606;9.096;2023-11-21T12:56:45;10.70;76.10
480;DHT22;226;48.606;9.096;2023-11-21T12:59:17;10.70;76.60
480;DHT22;226;48.606;9.096;2023-11-21T13:01:46;10.30;79.00
480;DHT22;226;48.606;9.096;2023-11-21T13:04:18;10.90;71.60
480;DHT22;226;48.606;9.096;2023-11-21T13:06:46;10.90;72.30
480;DHT22;226;48.606;9.096;2023-11-21T13:09:14;10.90;71.50
480;DHT22;226;48.606;9.096;2023-11-21T13:11:48;10.80;70.20
480;DHT22;226;48.606;9.096;2023-11-21T13:14:18;10.70;67.10
480;DHT22;226;48.606;9.096;2023-11-21T13:16:46;10.50;69.20
480;DHT22;226;48.606;9.096;2023-11-21T13:19:14;10.40;73.20
480;DHT22;226;48.606;9.096;2023-11-21T13:21:43;10.70;74.60
480;DHT22;226;48.606;9.096;2023-11-21T13:24:11;10.90;77.10
480;DHT22;226;48.606;9.096;2023-11-21T13:26:39;10.30;73.30
480;DHT22;226;48.606;9.096;2023-11-21T13:29:07;10.30;75.40
480;DHT22;226;48.606;9.096;2023-11-21T13:31:37;10.20;75.90
480;DHT22;226;48.606;9.096;2023-11-21T13:34:06;10.20;77.50
480;DHT22;226;48.606;9.096;2023-11-21T13:36:35;10.20;78.80
480;DHT22;226;48.606;9.096;2023-11-21T13:39:04;10.40;77.60
480;DHT22;226;48.606;9.096;2023-11-21T13:41:35;10.50;76.90
480;DHT22;226;48.606;9.096;2023-11-21T13:44:06;10.40;77.40
480;DHT22;226;48.606;9.096;2023-11-21T13:46:44;10.40;77.90
480;DHT22;226;48.606;9.096;2023-11-21T13:49:13;10.50;81.30
480;DHT22;226;48.606;9.096;2023-11-21T13:51:43;10.50;74.80
480;DHT22;226;48.606;9.096;2023-11-21T13:54:15;10.60;76.20
480;DHT22;226;48.606;9.096;2023-11-21T13:56:43;10.40;78.60
480;DHT22;226;48.606;9.096;2023-11-21T13:59:14;10.40;75.60
480;DHT22;226;48.606;9.096;2023-11-21T14:01:50;10.30;74.40
480;DHT22;226;48.606;9.096;2023-11-21T14:04:23;10.30;77.50
480;DHT22;226;48.606;9.096;2023-11-21T14:07:20;10.20;74.40
480;DHT22;226;48.606;9.096;2023-11-21T14:09:54;9.90;72.50
480;DHT22;226;48.606;9.096;2023-11-21T14:12:22;9.60;74.50
480;DHT22;226;48.606;9.096;2023-11-21T14:14:51;9.40;74.40
480;DHT22;226;48.606;9.096;2023-11-21T14:17:20;9.50;77.90
480;DHT22;226;48.606;9.096;2023-11-21T14:19:51;9.30;78.80
480;DHT22;226;48.606;9.096;2023-11-21T14:22:19;9.30;82.40
480;DHT22;226;48.606;9.096;2023-11-21T14:24:48;9.20;79.40
480;DHT22;226;48.606;9.096;2023-11-21T14:27:19;9.10;80.50
480;DHT22;226;48.606;9.096;2023-11-21T14:29:47;9.10;79.80
480;DHT22;226;48.606;9.096;2023-11-21T14:32:15;9.20;82.80
480;DHT22;226;48.606;9.096;2023-11-21T14:34:45;9.00;86.60
480;DHT22;226;48.606;9.096;2023-11-21T14:37:15;9.30;82.50
480;DHT22;226;48.606;9.096;2023-11-21T14:39:43;9.30;80.80
480;DHT22;226;48.606;9.096;2023-11-21T14:42:14;9.30;83.30
480;DHT22;226;48.606;9.096;2023-11-21T14:44:42;9.30;85.30
480;DHT22;226;48.606;9.096;2023-11-21T14:47:11;9.30;84.70
480;DHT22;226;48.606;9.096;2023-11-21T14:49:45;9.10;83.90
480;DHT22;226;48.606;9.096;2023-11-21T14:52:21;9.40;85.10
480;DHT22;226;48.606;9.096;2023-11-21T14:55:01;9.50;86.10
480;DHT22;226;48.606;9.096;2023-11-21T14:57:47;9.40;87.60
480;DHT22;226;48.606;9.096;2023-11-21T15:00:19;9.50;85.10
480;DHT22;226;48.606;9.096;2023-11-21T15:03:02;9.40;83.90
480;DHT22;226;48.606;9.096;2023-11-21T15:05:31;9.40;85.10
480;DHT22;226;48.606;9.096;2023-11-21T15:08:01;9.50;88.40
480;DHT22;226;48.606;9.096;2023-11-21T15:10:45;9.40;90.20
480;DHT22;226;48.606;9.096;2023-11-21T15:13:14;9.50;88.00
480;DHT22;226;48.606;9.096;2023-11-21T15:15:43;9.40;87.10
480;DHT22;226;48.606;9.096;2023-11-21T15:18:11;9.60;89.40
480;DHT22;226;48.606;9.096;2023-11-21T15:20:41;9.30;88.20
480;DHT22;226;48.606;9.096;2023-11-21T15:23:10;9.30;90.10
480;DHT22;226;48.606;9.096;2023-11-21T15:25:39;9.50;89.00
480;DHT22;226;48.606;9.096;2023-11-21T15:28:08;9.30;91.20
480;DHT22;226;48.606;9.096;2023-11-21T15:30:36;9.80;90.60
480;DHT22;226;48.606;9.096;2023-11-21T15:33:04;9.30;90.70
480;DHT22;226;48.606;9.096;2023-11-21T15:35:34;10.30;90.40
480;DHT22;226;48.606;9.096;2023-11-21T15:38:06;9.20;90.70
480;DHT22;226;48.606;9.096;2023-11-21T15:40:35;9.30;90.50
480;DHT22;226;48.606;9.096;2023-11-21T15:43:03;9.80;90.80
480;DHT22;226;48.606;9.096;2023-11-21T15:45:32;9.60;92.40
480;DHT22;226;48.606;9.096;2023-11-21T15:48:00;9.40;91.60
480;DHT22;226;48.606;9.096;2023-11-21T15:50:29;9.10;91.70
480;DHT22;226;48.606;9.096;2023-11-21T15:52:58;9.10;91.80
480;DHT22;226;48.606;9.096;2023-11-21T15:55:28;9.20;92.60
480;DHT22;226;48.606;9.096;2023-11-21T15:57:56;9.10;90.90
480;DHT22;226;48.606;9.096;2023-11-21T16:00:25;9.10;92.70
480;DHT22;226;48.606;9.096;2023-11-21T16:02:53;9.10;91.30
480;DHT22;226;48.606;9.096;2023-11-21T16:05:22;9.10;92.20
480;DHT22;226;48.606;9.096;2023-11-21T16:07:52;9.00;92.60
480;DHT22;226;48.606;9.096;2023-11-21T16:10:21;9.10;90.10
480;DHT22;226;48.606;9.096;2023-11-21T16:12:51;9.10;91.90
480;DHT22;226;48.606;9.096;2023-11-21T16:15:19;8.70;93.30
480;DHT22;226;48.606;9.096;2023-11-21T16:17:49;9.70;92.00
480;DHT22;226;48.606;9.096;2023-11-21T16:20:17;9.10;91.00
480;DHT22;226;48.606;9.096;2023-11-21T16:22:45;9.10;92.80
480;DHT22;226;48.606;9.096;2023-11-21T16:25:14;9.10;91.60
480;DHT22;226;48.606;9.096;2023-11-21T16:27:42;7.70;91.50
480;DHT22;226;48.606;9.096;2023-11-21T16:30:12;8.90;91.10
480;DHT22;226;48.606;9.096;2023-11-21T16:32:40;8.90;93.00
480;DHT22;226;48.606;9.096;2023-11-21T16:35:09;8.90;90.80
480;DHT22;226;48.606;9.096;2023-11-21T16:37:39;9.00;91.60
480;DHT22;226;48.606;9.096;2023-11-21T16:40:09;8.90;91.80
480;DHT22;226;48.606;9.096;2023-11-21T16:42:38;8.90;93.60
480;DHT22;226;48.606;9.096;2023-11-21T16:45:07;8.90;90.70
480;DHT22;226;48.606;9.096;2023-11-21T16:47:37;8.80;91.20
480;DHT22;226;48.606;9.096;2023-11-21T16:50:07;8.90;91.10
480;DHT22;226;48.606;9.096;2023-11-21T16:52:35;8.80;92.90
480;DHT22;226;48.606;9.096;2023-11-21T16:55:05;8.90;93.70
480;DHT22;226;48.606;9.096;2023-11-21T16:57:36;8.80;94.00
480;DHT22;226;48.606;9.096;2023-11-21T17:00:05;8.70;91.20
480;DHT22;226;48.606;9.096;2023-11-21T17:02:40;8.80;90.60
480;DHT22;226;48.606;9.096;2023-11-21T17:05:08;8.90;90.90
480;DHT22;226;48.606;9.096;2023-11-21T17:07:38;8.80;92.10